createdAt,value
2022-09-06T00:01:34.770Z,114490.28
2022-09-06T00:03:38.742Z,114490.28
2022-09-06T00:05:45.051Z,114490.28
2022-09-06T00:07:48.703Z,114490.28
2022-09-06T00:09:59.413Z,114490.28
2022-09-06T00:12:03.428Z,114490.28
2022-09-06T00:14:08.008Z,114490.28
2022-09-06T00:16:16.644Z,114490.28
2022-09-06T00:18:20.473Z,114490.28
2022-09-06T00:20:23.963Z,114490.28
2022-09-06T00:22:28.012Z,114490.28
2022-09-06T00:24:31.374Z,114490.28
2022-09-06T00:26:35.164Z,114490.28
2022-09-06T00:28:39.612Z,114490.28
2022-09-06T00:30:43.465Z,114490.28
2022-09-06T00:32:47.083Z,114490.28
2022-09-06T00:34:50.755Z,114490.28
2022-09-06T00:36:54.844Z,114490.28
2022-09-06T00:38:59.531Z,114490.28
2022-09-06T00:41:03.035Z,114490.28
2022-09-06T00:43:07.052Z,114490.28
2022-09-06T00:45:13.639Z,114490.28
2022-09-06T00:47:17.364Z,114490.28
2022-09-06T00:49:26.455Z,114490.28
2022-09-06T00:51:32.373Z,114490.28
2022-09-06T00:53:36.437Z,114490.28
2022-09-06T00:55:42.665Z,114490.28
2022-09-06T00:57:47.807Z,114490.28
2022-09-06T00:59:52.061Z,114490.28
2022-09-06T01:01:56.356Z,114490.28
2022-09-06T01:04:00.881Z,114490.28
2022-09-06T01:06:25.812Z,114490.28
2022-09-06T01:08:45.284Z,114490.28
2022-09-06T01:11:03.392Z,114490.28
2022-09-06T01:13:19.123Z,114490.28
2022-09-06T01:15:26.855Z,114490.28
2022-09-06T01:17:31.576Z,114490.28
2022-09-06T01:19:58.253Z,114490.28
2022-09-06T01:22:07.682Z,114490.28
2022-09-06T01:24:30.828Z,114490.28
2022-09-06T01:26:37.938Z,114490.28
2022-09-06T01:28:45.052Z,114490.28
2022-09-06T01:30:52.488Z,114490.28
2022-09-06T01:33:08.165Z,114490.28
2022-09-06T01:35:31.747Z,114490.28
2022-09-06T01:37:35.760Z,114490.28
2022-09-06T01:39:41.328Z,114490.28
2022-09-06T01:41:45.204Z,114490.28
2022-09-06T01:43:53.260Z,114490.28
2022-09-06T01:46:29.752Z,114490.28
2022-09-06T01:48:51.962Z,114490.28
2022-09-06T01:51:04.377Z,114490.28
2022-09-06T01:53:22.398Z,114490.28
2022-09-06T01:55:33.966Z,114490.28
2022-09-06T01:57:46.450Z,114490.28
2022-09-06T01:59:59.286Z,114490.28
2022-09-06T02:02:03.129Z,114490.28
2022-09-06T02:04:20.508Z,114490.28
2022-09-06T02:06:27.206Z,114490.28
2022-09-06T02:08:42.501Z,114490.28
2022-09-06T02:10:51.371Z,114490.28
2022-09-06T02:12:57.002Z,114490.28
2022-09-06T02:15:04.685Z,114490.28
2022-09-06T02:17:10.520Z,114490.28
2022-09-06T02:19:21.472Z,114490.28
2022-09-06T02:21:29.535Z,114490.28
2022-09-06T02:23:35.185Z,114490.28
2022-09-06T02:25:40.094Z,114490.28
2022-09-06T02:27:43.653Z,114490.28
2022-09-06T02:29:47.669Z,114490.28
2022-09-06T02:31:54.485Z,114490.28
2022-09-06T02:33:58.580Z,114490.28
2022-09-06T02:36:06.990Z,114490.28
2022-09-06T02:38:10.909Z,114490.28
2022-09-06T02:40:15.277Z,114490.28
2022-09-06T02:42:28.959Z,114490.28
2022-09-06T02:44:33.648Z,114490.28
2022-09-06T02:46:37.357Z,114490.28
2022-09-06T02:48:42.205Z,114490.28
2022-09-06T02:50:49.763Z,114490.28
2022-09-06T02:53:03.487Z,114490.28
2022-09-06T02:55:08.213Z,114490.28
2022-09-06T02:57:11.716Z,114490.28
2022-09-06T02:59:15.554Z,114490.28
2022-09-06T03:01:19.270Z,114490.28
2022-09-06T03:03:23.060Z,114490.28
2022-09-06T03:05:27.445Z,114490.28
2022-09-06T03:07:31.354Z,114490.28
2022-09-06T03:09:35.230Z,114490.28
2022-09-06T03:11:39.678Z,114490.28
2022-09-06T03:13:44.419Z,114490.28
2022-09-06T03:15:52.620Z,114490.28
2022-09-06T03:18:00.741Z,114490.28
2022-09-06T03:20:05.272Z,114490.28
2022-09-06T03:22:09.222Z,114490.28
2022-09-06T03:24:12.969Z,114490.28
2022-09-06T03:26:16.750Z,114490.28
2022-09-06T03:28:21.154Z,114490.28
2022-09-06T03:30:24.672Z,114490.28
2022-09-06T03:32:28.401Z,114490.28
2022-09-06T03:34:31.870Z,114490.28
2022-09-06T03:36:35.943Z,114490.28
2022-09-06T03:38:40.142Z,114490.28
2022-09-06T03:40:50.807Z,114490.28
2022-09-06T03:42:54.798Z,114490.28
2022-09-06T03:44:58.478Z,114490.28
2022-09-06T03:47:02.277Z,114490.28
2022-09-06T03:49:14.419Z,114490.28
2022-09-06T03:51:18.890Z,114490.28
2022-09-06T03:53:25.004Z,114490.28
2022-09-06T03:55:28.627Z,114490.28
2022-09-06T03:57:32.589Z,114490.28
2022-09-06T03:59:36.716Z,114490.28
2022-09-06T04:01:40.987Z,114490.28
2022-09-06T04:03:44.915Z,114490.28
2022-09-06T04:05:48.854Z,114490.28
2022-09-06T04:07:53.327Z,114490.28
2022-09-06T04:10:00.255Z,114490.28
2022-09-06T04:12:04.777Z,114490.28
2022-09-06T04:14:08.834Z,114490.28
2022-09-06T04:16:13.196Z,114490.28
2022-09-06T04:18:17.978Z,114490.28
2022-09-06T04:20:21.547Z,114490.28
2022-09-06T04:22:25.296Z,114490.28
2022-09-06T04:24:29.008Z,114490.28
2022-09-06T04:26:32.986Z,114490.28
2022-09-06T04:28:39.675Z,114490.28
2022-09-06T04:30:47.039Z,114490.28
2022-09-06T04:32:51.845Z,114490.28
2022-09-06T04:34:55.839Z,114490.28
2022-09-06T04:36:59.670Z,114490.28
2022-09-06T04:39:03.755Z,114490.28
2022-09-06T04:41:08.157Z,114490.28
2022-09-06T04:43:11.830Z,114490.28
2022-09-06T04:45:15.747Z,114490.28
2022-09-06T04:47:20.337Z,114490.28
2022-09-06T04:49:24.747Z,114490.28
2022-09-06T04:51:28.264Z,114490.28
2022-09-06T04:53:32.097Z,114490.28
2022-09-06T04:55:36.034Z,114490.28
2022-09-06T04:57:44.470Z,114490.28
2022-09-06T04:59:49.592Z,114490.28
2022-09-06T05:01:53.826Z,114490.28
2022-09-06T05:03:57.751Z,114490.28
2022-09-06T05:06:08.468Z,114490.28
2022-09-06T05:08:12.700Z,114490.28
2022-09-06T05:10:16.955Z,114063.69
2022-09-06T05:12:20.888Z,113186.63
2022-09-06T05:14:24.756Z,112610.03
2022-09-06T05:16:28.604Z,112049.53
2022-09-06T05:18:32.875Z,110426.53
2022-09-06T05:20:38.363Z,109164.19
2022-09-06T05:22:46.442Z,106912.56
2022-09-06T05:24:50.465Z,105771.25
2022-09-06T05:26:54.520Z,104202.69
2022-09-06T05:28:58.307Z,102470.97
2022-09-06T05:31:12.244Z,100454.56
2022-09-06T05:33:20.678Z,97194.53
2022-09-06T05:35:24.390Z,91462.91
2022-09-06T05:37:27.937Z,87159.56
2022-09-06T05:39:34.911Z,87245.09
2022-09-06T05:41:38.714Z,84329.66
2022-09-06T05:43:43.003Z,81146.16
2022-09-06T05:45:46.721Z,78169.66
2022-09-06T05:47:50.851Z,74572.56
2022-09-06T05:49:55.451Z,71678.22
2022-09-06T05:51:59.631Z,69417.72
2022-09-06T05:54:03.198Z,65521.81
2022-09-06T05:56:07.238Z,65321.97
2022-09-06T05:58:11.238Z,61295.66
2022-09-06T06:00:15.841Z,57879.63
2022-09-06T06:02:19.394Z,57853.97
2022-09-06T06:04:26.043Z,56925.88
2022-09-06T06:06:30.624Z,55492.75
2022-09-06T06:08:34.950Z,54097.59
2022-09-06T06:10:40.663Z,53985.13
2022-09-06T06:12:46.527Z,54166.66
2022-09-06T06:14:50.557Z,54115.34
2022-09-06T06:16:54.645Z,54365.94
2022-09-06T06:19:01.875Z,55595.38
2022-09-06T06:21:09.521Z,55251.97
2022-09-06T06:23:13.372Z,56785.72
2022-09-06T06:25:18.222Z,56844.94
2022-09-06T06:27:22.504Z,56333.63
2022-09-06T06:29:29.757Z,56519.19
2022-09-06T06:31:34.798Z,55563.78
2022-09-06T06:33:39.012Z,56108.56
2022-09-06T06:35:43.039Z,55072.38
2022-09-06T06:37:46.974Z,54746.75
2022-09-06T06:39:51.257Z,54612.56
2022-09-06T06:41:55.020Z,54245.56
2022-09-06T06:44:11.216Z,53491.94
2022-09-06T06:46:18.544Z,52797.63
2022-09-06T06:48:23.220Z,51762.28
2022-09-06T06:50:28.499Z,51117.53
2022-09-06T06:52:32.532Z,50833.66
2022-09-06T06:54:37.328Z,50800.13
2022-09-06T06:56:47.258Z,50784.38
2022-09-06T06:58:52.129Z,50823.78
2022-09-06T07:00:56.115Z,50833.66
2022-09-06T07:03:01.179Z,50737.06
2022-09-06T07:07:33.588Z,50784.38
2022-09-06T07:12:02.945Z,50715.38
2022-09-06T07:14:06.753Z,50782.41
2022-09-06T07:16:11.577Z,50810.00
2022-09-06T07:18:19.722Z,50707.50
2022-09-06T07:20:23.635Z,50717.34
2022-09-06T07:22:27.618Z,50703.53
2022-09-06T07:24:31.744Z,50561.63
2022-09-06T07:26:38.548Z,49968.31
2022-09-06T07:28:42.871Z,49919.06
2022-09-06T07:30:47.887Z,49881.59
2022-09-06T07:32:51.930Z,49861.91
2022-09-06T07:34:58.442Z,49792.91
2022-09-06T07:37:02.179Z,49852.03
2022-09-06T07:39:08.537Z,49859.94
2022-09-06T07:41:15.517Z,49824.44
2022-09-06T07:43:19.088Z,49871.75
2022-09-06T07:45:22.478Z,49804.75
2022-09-06T07:54:40.206Z,49532.78
2022-09-06T07:56:44.198Z,49524.88
2022-09-06T07:58:48.005Z,49509.13
2022-09-06T08:00:52.139Z,49509.13
2022-09-06T08:02:58.633Z,49505.19
2022-09-06T08:05:02.813Z,49501.25
2022-09-06T08:09:30.653Z,49495.34
2022-09-06T08:11:35.223Z,49497.31
2022-09-06T08:13:39.531Z,49497.31
2022-09-06T08:15:43.360Z,49495.34
2022-09-06T08:17:49.842Z,49501.25
2022-09-06T08:19:53.596Z,49495.34
2022-09-06T08:21:57.183Z,49499.28
2022-09-06T08:24:02.502Z,49499.28
2022-09-06T08:26:06.723Z,49485.47
2022-09-06T08:28:10.237Z,49489.41
2022-09-06T08:30:13.941Z,49485.47
2022-09-06T08:32:18.214Z,49487.44
2022-09-06T08:34:21.903Z,49489.41
2022-09-06T08:36:28.320Z,49483.50
2022-09-06T08:38:32.513Z,49487.44
2022-09-06T08:40:40.464Z,49469.72
2022-09-06T08:42:45.377Z,49473.66
2022-09-06T08:47:06.001Z,49473.66
2022-09-06T08:49:10.982Z,49473.66
2022-09-06T08:51:17.381Z,49475.63
2022-09-06T08:53:21.156Z,49473.66
2022-09-06T08:55:27.943Z,49475.63
2022-09-06T08:57:40.429Z,49471.69
2022-09-06T08:59:45.354Z,49473.66
2022-09-06T09:02:03.508Z,49477.59
2022-09-06T09:04:08.867Z,49473.66
2022-09-06T09:06:12.902Z,49471.69
2022-09-06T09:08:24.178Z,49471.69
2022-09-06T09:10:33.360Z,49473.66
2022-09-06T09:12:40.807Z,49469.72
2022-09-06T09:14:49.422Z,49471.69
2022-09-06T09:16:53.878Z,49471.69
2022-09-06T09:19:00.605Z,49473.66
2022-09-06T09:21:04.154Z,49471.69
2022-09-06T09:23:07.851Z,49469.72
2022-09-06T09:25:17.665Z,49473.66
2022-09-06T09:27:28.840Z,49473.66
2022-09-06T09:29:36.305Z,49467.75
2022-09-06T09:31:53.341Z,49473.66
2022-09-06T09:33:57.589Z,49469.72
2022-09-06T09:36:02.872Z,49469.72
2022-09-06T09:38:14.369Z,49469.72
2022-09-06T09:40:17.876Z,49469.72
2022-09-06T09:42:35.649Z,49469.72
2022-09-06T09:44:47.835Z,49469.72
2022-09-06T09:46:51.922Z,49469.72
2022-09-06T09:49:14.071Z,49471.69
2022-09-06T09:51:26.335Z,49469.72
2022-09-06T09:53:31.396Z,49469.72
2022-09-06T09:55:35.022Z,49471.69
2022-09-06T09:57:47.473Z,49469.72
2022-09-06T10:00:03.382Z,49471.69
2022-09-06T10:02:27.682Z,49469.72
2022-09-06T10:04:43.089Z,49473.66
2022-09-06T10:09:20.895Z,49467.75
2022-09-06T10:12:03.578Z,49469.72
2022-09-06T10:14:13.958Z,49467.75
2022-09-06T10:16:17.797Z,49471.69
2022-09-06T10:18:32.525Z,49467.75
2022-09-06T10:20:45.034Z,49469.72
2022-09-06T10:22:55.759Z,49473.66
2022-09-06T10:25:25.540Z,49465.78
2022-09-06T10:27:29.936Z,49469.72
2022-09-06T10:29:41.985Z,49469.72
2022-09-06T10:32:04.029Z,49467.75
2022-09-06T10:34:17.847Z,49465.78
2022-09-06T10:36:27.415Z,49465.78
2022-09-06T10:38:45.915Z,49467.75
2022-09-06T10:40:55.253Z,49465.78
2022-09-06T10:43:03.094Z,49459.84
2022-09-06T10:45:17.496Z,49465.78
2022-09-06T10:47:21.293Z,49465.78
2022-09-06T10:49:25.585Z,49463.81
2022-09-06T10:51:48.254Z,49465.78
2022-09-06T10:53:51.937Z,49465.78
2022-09-06T10:56:19.012Z,49465.78
2022-09-06T10:58:27.633Z,49461.81
2022-09-06T11:00:33.793Z,49465.78
2022-09-06T11:02:42.533Z,49461.81
2022-09-06T11:07:35.000Z,49463.81
2022-09-06T11:09:52.046Z,49467.75
2022-09-06T11:12:13.719Z,49463.81
2022-09-06T11:14:17.951Z,49463.81
2022-09-06T11:16:21.740Z,49461.81
2022-09-06T11:18:28.265Z,49467.75
2022-09-06T11:20:37.290Z,49469.72
2022-09-06T11:22:58.278Z,49469.72
2022-09-06T11:25:07.797Z,49461.81
2022-09-06T11:27:37.189Z,49461.81
2022-09-06T11:29:46.579Z,49467.75
2022-09-06T11:34:36.387Z,49463.81
2022-09-06T11:36:51.957Z,49465.78
2022-09-06T11:38:57.205Z,49465.78
2022-09-06T11:41:02.876Z,49463.81
2022-09-06T11:43:06.476Z,49463.81
2022-09-06T11:45:10.047Z,49467.75
2022-09-06T11:47:33.564Z,49465.78
2022-09-06T11:49:38.356Z,49465.78
2022-09-06T11:51:43.408Z,49461.81
2022-09-06T11:53:51.366Z,49465.78
2022-09-06T11:56:04.232Z,49465.78
2022-09-06T11:58:20.562Z,49463.81
2022-09-06T12:00:25.492Z,49467.75
2022-09-06T12:02:32.486Z,49467.75
2022-09-06T12:04:58.355Z,49465.78
2022-09-06T12:07:11.014Z,49463.81
2022-09-06T12:09:30.397Z,49467.75
2022-09-06T12:11:47.415Z,49465.78
2022-09-06T12:13:59.282Z,49461.81
2022-09-06T12:16:03.168Z,49467.75
2022-09-06T12:18:06.909Z,49461.81
2022-09-06T12:20:12.375Z,49465.78
2022-09-06T12:22:28.255Z,49463.81
2022-09-06T12:24:39.470Z,49461.81
2022-09-06T12:26:55.669Z,49463.81
2022-09-06T12:28:59.778Z,49465.78
2022-09-06T12:31:21.144Z,49463.81
2022-09-06T12:33:40.960Z,49465.78
2022-09-06T12:36:05.831Z,49463.81
2022-09-06T12:38:15.437Z,49465.78
2022-09-06T12:40:23.511Z,49463.81
2022-09-06T12:42:31.106Z,49463.81
2022-09-06T12:44:36.931Z,49463.81
2022-09-06T12:46:46.356Z,49463.81
2022-09-06T12:49:04.775Z,49463.81
2022-09-06T12:51:14.774Z,49461.81
2022-09-06T12:53:26.202Z,49465.78
2022-09-06T12:55:34.576Z,49459.84
2022-09-06T12:57:38.336Z,49457.88
2022-09-06T12:59:49.089Z,49459.84
2022-09-06T13:02:01.869Z,49457.88
2022-09-06T13:04:06.078Z,49459.84
2022-09-06T13:06:15.309Z,49459.84
2022-09-06T13:08:24.003Z,49457.88
2022-09-06T13:10:29.346Z,49459.84
2022-09-06T13:12:39.129Z,49455.91
2022-09-06T13:14:49.406Z,49457.88
2022-09-06T13:16:54.238Z,49457.88
2022-09-06T13:19:15.277Z,49455.91
2022-09-06T13:21:31.014Z,49457.88
2022-09-06T13:23:52.062Z,49457.88
2022-09-06T13:25:56.779Z,49461.81
2022-09-06T13:28:02.550Z,49459.84
2022-09-06T13:30:08.255Z,49463.81
2022-09-06T13:32:15.627Z,49465.78
2022-09-06T13:34:29.911Z,49473.66
2022-09-06T13:36:34.777Z,49481.53
2022-09-06T13:38:45.036Z,49505.19
2022-09-06T13:41:11.540Z,49513.06
2022-09-06T13:43:16.178Z,49540.66
2022-09-06T13:45:30.211Z,50193.00
2022-09-06T13:47:34.232Z,50957.84
2022-09-06T13:49:37.890Z,53420.91
2022-09-06T13:51:44.346Z,54646.13
2022-09-06T13:53:48.151Z,60856.88
2022-09-06T13:55:53.504Z,65927.44
2022-09-06T13:57:57.289Z,67485.13
2022-09-06T14:00:00.999Z,66489.50
2022-09-06T14:02:11.028Z,66062.00
2022-09-06T14:04:16.737Z,67225.78
2022-09-06T14:06:21.019Z,70756.81
2022-09-06T14:08:25.347Z,72179.63
2022-09-06T14:10:29.185Z,75776.53
2022-09-06T14:12:34.430Z,81007.13
2022-09-06T14:14:38.168Z,84506.59
2022-09-06T14:16:41.825Z,85293.94
2022-09-06T14:18:46.237Z,92584.25
2022-09-06T14:20:53.614Z,92283.47
2022-09-06T14:22:57.513Z,93929.13
2022-09-06T14:25:01.546Z,93118.16
2022-09-06T14:27:08.060Z,92512.56
2022-09-06T14:29:11.735Z,95669.16
2022-09-06T14:31:17.313Z,98995.81
2022-09-06T14:33:22.037Z,102039.66
2022-09-06T14:35:25.787Z,101836.00
2022-09-06T14:37:29.557Z,101917.88
2022-09-06T14:39:32.930Z,102311.22
2022-09-06T14:41:36.990Z,104682.19
2022-09-06T14:43:43.753Z,105125.75
2022-09-06T14:45:47.479Z,105399.53
2022-09-06T14:47:51.429Z,106432.81
2022-09-06T14:49:55.431Z,108252.19
2022-09-06T14:51:59.292Z,110208.44
2022-09-06T14:54:10.993Z,110456.56
2022-09-06T14:56:16.568Z,110894.75
2022-09-06T14:58:20.277Z,111052.84
2022-09-06T15:00:26.838Z,111092.88
2022-09-06T15:02:30.851Z,111741.31
2022-09-06T15:04:34.696Z,112443.88
2022-09-06T15:06:41.052Z,114201.88
2022-09-06T15:08:45.224Z,114490.28
2022-09-06T15:10:59.145Z,114490.28
2022-09-06T15:13:02.747Z,114490.28
2022-09-06T15:15:07.948Z,114490.28
2022-09-06T15:17:12.663Z,114490.28
2022-09-06T15:19:16.400Z,114490.28
2022-09-06T15:21:20.096Z,114490.28
2022-09-06T15:23:35.515Z,114490.28
2022-09-06T15:25:39.789Z,114490.28
2022-09-06T15:27:44.169Z,114490.28
2022-09-06T15:29:48.387Z,114490.28
2022-09-06T15:31:53.098Z,114490.28
2022-09-06T15:34:00.340Z,114490.28
2022-09-06T15:36:07.438Z,114490.28
2022-09-06T15:38:14.207Z,114490.28
2022-09-06T15:40:17.654Z,114490.28
2022-09-06T15:42:21.345Z,114490.28
2022-09-06T15:44:25.237Z,114490.28
2022-09-06T15:46:39.528Z,114490.28
2022-09-06T15:48:44.479Z,114490.28
2022-09-06T15:50:51.736Z,114490.28
2022-09-06T15:52:55.601Z,114490.28
2022-09-06T15:55:17.710Z,114490.28
2022-09-06T15:57:22.321Z,114490.28
2022-09-06T15:59:26.334Z,114490.28
2022-09-06T16:01:30.566Z,114490.28
2022-09-06T16:03:37.215Z,114490.28
2022-09-06T16:08:04.667Z,114490.28
2022-09-06T16:10:08.545Z,114490.28
2022-09-06T16:12:12.165Z,114490.28
2022-09-06T16:14:16.928Z,114490.28
2022-09-06T16:16:20.749Z,114490.28
2022-09-06T16:18:27.375Z,114490.28
2022-09-06T16:20:34.561Z,114490.28
2022-09-06T16:22:38.829Z,114490.28
2022-09-06T16:24:42.716Z,114490.28
2022-09-06T16:26:49.823Z,114490.28
2022-09-06T16:28:53.804Z,114490.28
2022-09-06T16:30:57.780Z,114490.28
2022-09-06T16:33:01.486Z,114490.28
2022-09-06T16:35:07.190Z,114490.28
2022-09-06T16:37:11.076Z,114490.28
2022-09-06T16:39:14.832Z,114490.28
2022-09-06T16:41:26.604Z,114490.28
2022-09-06T16:43:34.849Z,114490.28
2022-09-06T16:45:38.885Z,114490.28
2022-09-06T16:47:42.731Z,114490.28
2022-09-06T16:49:46.697Z,114490.28
2022-09-06T16:51:51.867Z,114490.28
2022-09-06T16:53:56.895Z,114490.28
2022-09-06T16:56:04.682Z,114490.28
2022-09-06T16:58:08.473Z,114490.28
2022-09-06T17:00:14.325Z,114490.28
2022-09-06T17:02:20.022Z,114490.28
2022-09-06T17:04:24.707Z,114490.28
2022-09-06T17:06:28.474Z,114490.28
2022-09-06T17:08:33.607Z,114490.28
2022-09-06T17:10:39.809Z,114490.28
2022-09-06T17:12:43.927Z,114490.28
2022-09-06T17:14:47.608Z,114490.28
2022-09-06T17:17:06.339Z,114490.28
2022-09-06T17:19:10.544Z,114490.28
2022-09-06T17:21:14.513Z,114490.28
2022-09-06T17:23:19.862Z,114490.28
2022-09-06T17:25:23.462Z,114490.28
2022-09-06T17:27:27.289Z,114490.28
2022-09-06T17:29:32.352Z,114490.28
2022-09-06T17:31:36.532Z,114490.28
2022-09-06T17:33:40.537Z,114490.28
2022-09-06T17:35:45.030Z,114490.28
2022-09-06T17:37:48.804Z,114490.28
2022-09-06T17:39:52.720Z,114490.28
2022-09-06T17:41:56.400Z,114490.28
2022-09-06T17:44:00.532Z,114490.28
2022-09-06T17:46:04.829Z,114490.28
2022-09-06T17:48:08.598Z,114490.28
2022-09-06T17:50:15.453Z,114490.28
2022-09-06T17:52:19.028Z,114490.28
2022-09-06T17:54:22.796Z,114490.28
2022-09-06T17:56:26.793Z,114490.28
2022-09-06T17:58:30.397Z,114490.28
2022-09-06T18:00:34.257Z,114490.28
2022-09-06T18:02:37.899Z,114490.28
2022-09-06T18:04:41.832Z,114490.28
2022-09-06T18:06:47.480Z,114490.28
2022-09-06T18:08:52.416Z,114490.28
2022-09-06T18:10:56.219Z,114490.28
2022-09-06T18:13:00.084Z,114490.28
2022-09-06T18:15:03.938Z,114490.28
2022-09-06T18:17:10.205Z,114490.28
2022-09-06T18:19:14.301Z,114490.28
2022-09-06T18:21:17.994Z,114490.28
2022-09-06T18:23:21.793Z,114490.28
2022-09-06T18:25:28.745Z,114490.28
2022-09-06T18:27:34.183Z,114490.28
2022-09-06T18:29:40.325Z,114490.28
2022-09-06T18:31:44.613Z,114490.28
2022-09-06T18:33:48.279Z,114490.28
2022-09-06T18:35:52.337Z,114490.28
2022-09-06T18:37:56.444Z,114490.28
2022-09-06T18:40:00.087Z,114490.28
2022-09-06T18:42:12.436Z,114490.28
2022-09-06T18:44:16.712Z,114490.28
2022-09-06T18:46:20.374Z,114490.28
2022-09-06T18:48:23.874Z,114490.28
2022-09-06T18:50:28.000Z,114490.28
2022-09-06T18:52:32.699Z,114490.28
2022-09-06T18:54:36.843Z,114490.28
2022-09-06T18:56:40.672Z,114490.28
2022-09-06T18:58:44.547Z,114490.28
2022-09-06T19:00:48.445Z,114490.28
2022-09-06T19:02:53.320Z,114490.28
2022-09-06T19:05:00.181Z,114490.28
2022-09-06T19:07:05.370Z,114490.28
2022-09-06T19:09:10.844Z,114490.28
2022-09-06T19:11:18.382Z,114490.28
2022-09-06T19:13:22.173Z,114490.28
2022-09-06T19:15:26.373Z,114490.28
2022-09-06T19:17:30.387Z,114490.28
2022-09-06T19:19:34.977Z,114490.28
2022-09-06T19:21:42.048Z,114490.28
2022-09-06T19:23:47.855Z,114490.28
2022-09-06T19:26:02.494Z,114490.28
2022-09-06T19:28:06.258Z,114490.28
2022-09-06T19:30:10.669Z,114490.28
2022-09-06T19:32:15.941Z,114490.28
2022-09-06T19:34:19.951Z,114490.28
2022-09-06T19:36:26.012Z,114490.28
2022-09-06T19:38:42.084Z,114490.28
2022-09-06T19:40:53.675Z,114490.28
2022-09-06T19:42:58.434Z,114490.28
2022-09-06T19:45:02.405Z,114490.28
2022-09-06T19:47:06.520Z,114490.28
2022-09-06T19:49:10.892Z,114490.28
2022-09-06T19:51:15.658Z,114490.28
2022-09-06T19:53:19.271Z,114490.28
2022-09-06T19:55:23.432Z,114490.28
2022-09-06T19:57:27.478Z,114490.28
2022-09-06T19:59:32.123Z,114490.28
2022-09-06T20:01:37.197Z,114490.28
2022-09-06T20:03:43.220Z,114490.28
2022-09-06T20:05:47.288Z,114490.28
2022-09-06T20:07:57.641Z,114490.28
2022-09-06T20:10:04.957Z,114490.28
2022-09-06T20:12:09.158Z,114490.28
2022-09-06T20:14:14.051Z,114490.28
2022-09-06T20:16:20.467Z,114490.28
2022-09-06T20:18:24.474Z,114490.28
2022-09-06T20:20:28.171Z,114490.28
2022-09-06T20:22:32.322Z,114490.28
2022-09-06T20:24:36.011Z,114490.28
2022-09-06T20:26:42.948Z,114490.28
2022-09-06T20:28:46.753Z,114490.28
2022-09-06T20:30:50.654Z,114490.28
2022-09-06T20:32:54.669Z,114490.28
2022-09-06T20:34:58.758Z,114490.28
2022-09-06T20:37:02.807Z,114490.28
2022-09-06T20:39:06.607Z,114490.28
2022-09-06T20:41:12.161Z,114490.28
2022-09-06T20:43:16.131Z,114490.28
2022-09-06T20:45:21.017Z,114490.28
2022-09-06T20:47:25.094Z,114490.28
2022-09-06T20:49:29.258Z,114490.28
2022-09-06T20:51:33.710Z,114490.28
2022-09-06T20:53:44.132Z,114490.28
2022-09-06T20:55:56.520Z,114490.28
2022-09-06T20:58:00.744Z,114490.28
2022-09-06T21:00:05.376Z,114490.28
2022-09-06T21:02:09.285Z,114490.28
2022-09-06T21:04:14.156Z,114490.28
2022-09-06T21:06:18.438Z,114490.28
2022-09-06T21:08:23.546Z,114490.28
2022-09-06T21:10:27.787Z,114490.28
2022-09-06T21:12:32.271Z,114490.28
2022-09-06T21:14:35.998Z,114490.28
2022-09-06T21:16:40.179Z,114490.28
2022-09-06T21:18:44.879Z,114490.28
2022-09-06T21:20:59.030Z,114490.28
2022-09-06T21:23:03.144Z,114490.28
2022-09-06T21:25:07.125Z,114490.28
2022-09-06T21:27:13.007Z,114490.28
2022-09-06T21:29:17.843Z,114490.28
2022-09-06T21:31:23.763Z,114490.28
2022-09-06T21:33:29.315Z,114490.28
2022-09-06T21:35:35.527Z,114490.28
2022-09-06T21:37:39.569Z,114490.28
2022-09-06T21:39:43.723Z,114490.28
2022-09-06T21:41:47.673Z,114490.28
2022-09-06T21:43:54.977Z,114490.28
2022-09-06T21:46:02.364Z,114490.28
2022-09-06T21:48:06.290Z,114490.28
2022-09-06T21:50:10.861Z,114490.28
2022-09-06T21:52:14.716Z,114490.28
2022-09-06T21:54:18.668Z,114490.28
2022-09-06T21:56:24.754Z,114490.28
2022-09-06T21:58:29.027Z,114490.28
2022-09-06T22:00:32.786Z,114490.28
2022-09-06T22:02:42.818Z,114490.28
2022-09-06T22:04:46.713Z,114490.28
2022-09-06T22:06:50.541Z,114490.28
2022-09-06T22:08:55.234Z,114490.28
2022-09-06T22:11:08.438Z,114490.28
2022-09-06T22:13:12.290Z,114490.28
2022-09-06T22:15:16.256Z,114490.28
2022-09-06T22:17:19.983Z,114490.28
2022-09-06T22:19:23.915Z,114490.28
2022-09-06T22:21:27.528Z,114490.28
2022-09-06T22:23:32.381Z,114490.28
2022-09-06T22:25:36.314Z,114490.28
2022-09-06T22:27:45.992Z,114490.28
2022-09-06T22:29:49.542Z,114490.28
2022-09-06T22:31:53.756Z,114490.28
2022-09-06T22:33:57.560Z,114490.28
2022-09-06T22:36:01.426Z,114490.28
2022-09-06T22:38:05.076Z,114490.28
2022-09-06T22:40:09.038Z,114490.28
2022-09-06T22:42:13.195Z,114490.28
2022-09-06T22:44:17.310Z,114490.28
2022-09-06T22:46:21.407Z,114490.28
2022-09-06T22:48:25.001Z,114490.28
2022-09-06T22:50:28.908Z,114490.28
2022-09-06T22:52:32.954Z,114490.28
2022-09-06T22:54:37.597Z,114490.28
2022-09-06T22:56:41.516Z,114490.28
2022-09-06T22:58:45.343Z,114490.28
2022-09-06T23:00:53.338Z,114490.28
2022-09-06T23:02:57.726Z,114490.28
2022-09-06T23:05:01.374Z,114490.28
2022-09-06T23:07:04.966Z,114490.28
2022-09-06T23:09:08.659Z,114490.28
2022-09-06T23:11:16.395Z,114490.28
2022-09-06T23:13:20.169Z,114490.28
2022-09-06T23:15:24.032Z,114490.28
2022-09-06T23:17:30.839Z,114490.28
2022-09-06T23:19:34.264Z,114490.28
2022-09-06T23:21:37.979Z,114490.28
2022-09-06T23:23:42.521Z,114490.28
2022-09-06T23:25:46.167Z,114490.28
2022-09-06T23:27:49.718Z,114490.28
2022-09-06T23:29:53.623Z,114490.28
2022-09-06T23:31:57.164Z,114490.28
2022-09-06T23:34:02.042Z,114490.28
2022-09-06T23:36:09.366Z,114490.28
2022-09-06T23:38:12.868Z,114490.28
2022-09-06T23:40:17.327Z,114490.28
2022-09-06T23:42:22.428Z,114490.28
2022-09-06T23:44:26.496Z,114490.28
2022-09-06T23:46:30.898Z,114490.28
2022-09-06T23:48:35.025Z,114490.28
2022-09-06T23:50:39.017Z,114490.28
2022-09-06T23:52:42.638Z,114490.28
2022-09-06T23:54:46.660Z,114490.28
2022-09-06T23:56:50.579Z,114490.28
2022-09-06T23:58:54.365Z,114490.28
